Port Hood, Canada
Current Conditions -  °F | °C
As of 6:05 PM on Saturday 25 Oct 2014 (Local Time) from CYPD Reporting Station
Light Rain Light Rain  
Wind Chill: 50°   Ceiling: 700
Heat Index: 50°   Visibility: 2.2mi
Dew Point: 50°   Wind: 8mph
Humidity: 100%   Direction: 300°WNW
Pressure: 29.43"   Gusts: NA
Location:  46.03°N, 61.53°W
Report Text: CYPD 252105Z AUTO 30007KT 2 1/4SM -RA BR BKN007 OVC013 10/10 A2943 RMK VIS VRB 1 1/2-3 SLP969 DENSITY ALT 400FT
Loading
Personal Weather Stations






























Interactive Weather Map New forecast layout! Learn more

10-Day Weather Forecast

Advertisements
Track Severe Weather on mobile